Time;durP1;ratioP1;P1;durP2;ratioP2;P2;SDS_P1;SDS_P2;PMS_P1;PMS_P2;Temp;Humidity;BMP_temperature;BMP_pressure;BME280_temperature;BME280_humidity;BME280_pressure;Samples;Min_cycle;Max_cycle;Signal;HPM_P1;HPM_P2
2023/05/17 00:02:07;;;;;;;18.92;4.88;;;;;;;;;;5032082;28;20041;-73
2023/05/17 00:04:33;;;;;;;13.48;4.40;;;;;;;;;;5033844;28;20052;-73
2023/05/17 00:06:59;;;;;;;16.23;4.47;;;;;;;;;;5036656;28;20087;-72
2023/05/17 00:09:25;;;;;;;16.92;4.45;;;;;;;;;;5047932;28;20041;-73
2023/05/17 00:11:51;;;;;;;15.02;3.88;;;;;;;;;;5031924;28;20091;-73
2023/05/17 00:14:17;;;;;;;18.45;5.13;;;;;;;;;;5039713;28;20052;-73
2023/05/17 00:16:43;;;;;;;13.00;3.95;;;;;;;;;;5032663;28;20050;-73
2023/05/17 00:19:09;;;;;;;14.18;4.05;;;;;;;;;;5045059;28;20056;-73
2023/05/17 00:21:35;;;;;;;17.17;4.32;;;;;;;;;;5033807;28;20087;-73
2023/05/17 00:24:01;;;;;;;19.50;4.03;;;;;;;;;;5031681;28;20041;-73
2023/05/17 00:26:28;;;;;;;11.77;3.17;;;;;;;;;;5033152;28;20207;-73
2023/05/17 00:28:54;;;;;;;9.95;3.63;;;;;;;;;;5043990;28;20094;-73
2023/05/17 00:31:20;;;;;;;11.90;3.95;;;;;;;;;;5039953;28;20037;-73
2023/05/17 00:33:46;;;;;;;11.77;3.28;;;;;;;;;;5034753;28;20049;-73
2023/05/17 00:36:12;;;;;;;13.65;3.83;;;;;;;;;;5051324;28;20442;-73
2023/05/17 00:38:38;;;;;;;14.48;3.72;;;;;;;;;;5052788;28;20057;-73
2023/05/17 00:41:04;;;;;;;13.43;3.35;;;;;;;;;;5040043;28;20046;-73
2023/05/17 00:43:30;;;;;;;15.43;4.22;;;;;;;;;;5042253;28;20061;-72
2023/05/17 00:45:56;;;;;;;10.35;3.85;;;;;;;;;;5037999;28;20477;-73
2023/05/17 00:48:25;;;;;;;8.35;3.33;;;;;;;;;;5034897;28;20049;-73
2023/05/17 00:50:52;;;;;;;12.45;3.45;;;;;;;;;;5034827;28;20521;-72
2023/05/17 00:53:18;;;;;;;11.82;3.70;;;;;;;;;;5035639;28;20126;-73
2023/05/17 00:55:44;;;;;;;13.32;3.03;;;;;;;;;;5035221;28;20049;-72
2023/05/17 00:58:14;;;;;;;12.05;3.63;;;;;;;;;;5038496;28;20068;-73
2023/05/17 01:00:40;;;;;;;12.15;3.70;;;;;;;;;;5041774;28;20045;-73
2023/05/17 01:03:06;;;;;;;15.07;3.28;;;;;;;;;;5035274;28;20041;-73
2023/05/17 01:05:32;;;;;;;14.73;3.85;;;;;;;;;;5043037;28;20394;-72
2023/05/17 01:07:58;;;;;;;8.40;3.10;;;;;;;;;;5054166;28;20041;-72
2023/05/17 01:10:36;;;;;;;13.55;3.63;;;;;;;;;;5045157;28;20049;-73
2023/05/17 01:13:09;;;;;;;13.18;3.75;;;;;;;;;;5052216;28;20047;-73
2023/05/17 01:15:41;;;;;;;17.65;3.65;;;;;;;;;;5046624;28;20037;-73
2023/05/17 01:18:25;;;;;;;16.92;3.47;;;;;;;;;;5042903;28;20049;-72
2023/05/17 01:20:52;;;;;;;9.93;3.78;;;;;;;;;;5035708;28;20056;-73
2023/05/17 01:23:41;;;;;;;13.60;3.47;;;;;;;;;;5033593;28;20061;-73
2023/05/17 01:26:13;;;;;;;12.90;3.35;;;;;;;;;;5034211;28;20515;-73
2023/05/17 01:28:40;;;;;;;15.45;4.00;;;;;;;;;;5036423;28;20044;-73
2023/05/17 01:31:08;;;;;;;15.60;3.88;;;;;;;;;;5049674;28;20057;-73
2023/05/17 01:33:35;;;;;;;15.65;4.00;;;;;;;;;;5037007;28;20393;-73
2023/05/17 01:36:01;;;;;;;11.45;4.32;;;;;;;;;;5040365;28;20048;-73
2023/05/17 01:38:27;;;;;;;16.88;4.05;;;;;;;;;;5047493;28;20056;-73
2023/05/17 01:41:12;;;;;;;12.82;4.03;;;;;;;;;;5039770;28;20046;-73
2023/05/17 01:43:43;;;;;;;12.77;3.55;;;;;;;;;;5040237;28;20057;-73
2023/05/17 01:46:15;;;;;;;16.15;3.95;;;;;;;;;;5041429;28;20127;-73
2023/05/17 01:48:49;;;;;;;12.50;3.85;;;;;;;;;;5053193;28;20087;-73
2023/05/17 01:51:18;;;;;;;10.30;3.15;;;;;;;;;;5043496;28;20054;-73
2023/05/17 01:53:48;;;;;;;11.88;2.97;;;;;;;;;;5031980;28;20494;-73
2023/05/17 01:56:21;;;;;;;10.55;3.85;;;;;;;;;;5036647;28;20053;-73
2023/05/17 01:58:48;;;;;;;15.10;2.97;;;;;;;;;;5042998;28;20060;-73
2023/05/17 02:01:15;;;;;;;9.38;2.95;;;;;;;;;;5033713;28;20054;-73
2023/05/17 02:03:41;;;;;;;11.88;3.60;;;;;;;;;;5034419;28;20115;-73
2023/05/17 02:06:07;;;;;;;10.00;3.15;;;;;;;;;;5034282;28;20088;-72
2023/05/17 02:08:33;;;;;;;13.57;3.50;;;;;;;;;;5032926;28;20049;-72
2023/05/17 02:10:59;;;;;;;13.70;3.10;;;;;;;;;;5042405;28;20041;-72
2023/05/17 02:13:25;;;;;;;10.65;2.90;;;;;;;;;;5045842;28;20053;-72
2023/05/17 02:15:51;;;;;;;11.27;3.10;;;;;;;;;;5033152;28;20129;-73
2023/05/17 02:18:20;;;;;;;13.40;3.08;;;;;;;;;;5032170;28;20382;-73
2023/05/17 02:20:46;;;;;;;11.00;2.85;;;;;;;;;;5032903;28;20492;-73
2023/05/17 02:23:12;;;;;;;9.27;2.58;;;;;;;;;;5040587;28;20045;-72
2023/05/17 02:25:38;;;;;;;9.00;3.03;;;;;;;;;;5039569;28;20104;-73
2023/05/17 02:28:04;;;;;;;11.23;2.70;;;;;;;;;;5033081;28;20429;-73
2023/05/17 02:30:30;;;;;;;7.28;2.85;;;;;;;;;;5033238;28;20231;-73
2023/05/17 02:32:56;;;;;;;11.00;2.85;;;;;;;;;;5050593;28;20056;-73
2023/05/17 02:35:22;;;;;;;8.40;2.63;;;;;;;;;;5051458;28;20102;-73
2023/05/17 02:37:48;;;;;;;9.35;2.53;;;;;;;;;;5038828;28;20432;-73
2023/05/17 02:40:14;;;;;;;6.22;2.90;;;;;;;;;;5050233;28;20524;-73
2023/05/17 02:42:40;;;;;;;9.75;3.03;;;;;;;;;;5035745;28;20458;-72
2023/05/17 02:45:07;;;;;;;6.25;2.50;;;;;;;;;;5033741;28;20441;-73
2023/05/17 02:47:33;;;;;;;8.95;2.63;;;;;;;;;;5045156;28;20049;-73
2023/05/17 02:49:59;;;;;;;8.23;2.72;;;;;;;;;;5033184;28;20077;-73
2023/05/17 02:52:25;;;;;;;7.45;2.47;;;;;;;;;;5038289;28;20466;-72
2023/05/17 02:54:51;;;;;;;6.30;2.75;;;;;;;;;;5039792;28;20076;-73
2023/05/17 02:57:17;;;;;;;7.32;2.60;;;;;;;;;;5045891;28;20083;-73
2023/05/17 02:59:43;;;;;;;8.48;2.67;;;;;;;;;;5032880;28;20137;-73
2023/05/17 03:02:09;;;;;;;10.13;2.88;;;;;;;;;;5032014;28;20053;-72
2023/05/17 03:04:35;;;;;;;11.10;3.35;;;;;;;;;;5032752;28;20048;-72
2023/05/17 03:07:01;;;;;;;11.25;3.40;;;;;;;;;;5033395;28;20091;-72
2023/05/17 03:09:29;;;;;;;8.75;3.08;;;;;;;;;;5033089;28;20119;-72
2023/05/17 03:11:55;;;;;;;8.52;3.13;;;;;;;;;;5044188;28;20045;-72
2023/05/17 03:14:21;;;;;;;10.85;3.15;;;;;;;;;;5036993;28;20044;-73
2023/05/17 03:16:47;;;;;;;8.05;2.88;;;;;;;;;;5047307;28;20041;-73
2023/05/17 03:19:13;;;;;;;7.63;2.90;;;;;;;;;;5043875;28;20056;-73
2023/05/17 03:21:39;;;;;;;10.32;3.00;;;;;;;;;;5047170;28;20045;-72
2023/05/17 03:24:05;;;;;;;11.93;3.05;;;;;;;;;;5043315;28;20047;-73
2023/05/17 03:26:32;;;;;;;13.18;2.92;;;;;;;;;;5040872;28;20052;-74
2023/05/17 03:28:58;;;;;;;13.05;3.28;;;;;;;;;;5032746;28;20046;-73
2023/05/17 03:31:24;;;;;;;13.50;3.08;;;;;;;;;;5039559;28;20135;-72
2023/05/17 03:33:50;;;;;;;11.75;2.80;;;;;;;;;;5041397;28;20037;-74
2023/05/17 03:36:16;;;;;;;9.43;3.25;;;;;;;;;;5031831;28;20041;-73
2023/05/17 03:38:42;;;;;;;8.25;2.80;;;;;;;;;;5030679;28;20136;-73
2023/05/17 03:41:08;;;;;;;6.25;2.55;;;;;;;;;;5035417;28;20124;-73
2023/05/17 03:43:34;;;;;;;8.98;3.03;;;;;;;;;;5040611;28;20472;-72
2023/05/17 03:46:00;;;;;;;7.72;2.92;;;;;;;;;;5031847;28;20049;-73
2023/05/17 03:48:26;;;;;;;10.35;2.97;;;;;;;;;;5037737;28;20036;-73
2023/05/17 03:50:52;;;;;;;8.40;2.50;;;;;;;;;;5038256;28;20045;-73
2023/05/17 03:53:18;;;;;;;6.35;2.30;;;;;;;;;;5038878;28;20056;-73
2023/05/17 03:55:44;;;;;;;9.38;2.63;;;;;;;;;;5035030;28;20041;-73
2023/05/17 03:58:10;;;;;;;6.68;2.30;;;;;;;;;;5034102;28;20096;-72
2023/05/17 04:00:36;;;;;;;8.23;2.40;;;;;;;;;;5034091;28;20065;-72
2023/05/17 04:03:02;;;;;;;11.32;2.60;;;;;;;;;;5050280;28;20048;-73
2023/05/17 04:05:28;;;;;;;6.68;2.28;;;;;;;;;;5044128;28;20189;-72
2023/05/17 04:07:54;;;;;;;8.15;2.60;;;;;;;;;;5034842;28;20094;-72
2023/05/17 04:10:21;;;;;;;8.57;3.45;;;;;;;;;;5028946;28;20049;-73
2023/05/17 04:12:47;;;;;;;7.95;2.72;;;;;;;;;;5030886;28;20049;-73
2023/05/17 04:15:13;;;;;;;5.78;2.40;;;;;;;;;;5030138;28;20056;-73
2023/05/17 04:17:39;;;;;;;7.57;2.47;;;;;;;;;;5041172;28;20124;-73
2023/05/17 04:20:05;;;;;;;7.38;2.58;;;;;;;;;;5041880;28;20041;-73
2023/05/17 04:22:31;;;;;;;6.22;2.42;;;;;;;;;;5042456;28;20063;-72
2023/05/17 04:24:57;;;;;;;7.13;2.45;;;;;;;;;;5038879;28;20485;-73
2023/05/17 04:27:23;;;;;;;7.95;2.53;;;;;;;;;;5038300;28;20182;-73
2023/05/17 04:29:50;;;;;;;4.88;2.20;;;;;;;;;;5043855;28;20125;-73
2023/05/17 04:32:17;;;;;;;6.10;2.30;;;;;;;;;;5031823;28;20533;-73
2023/05/17 04:34:43;;;;;;;6.05;2.47;;;;;;;;;;5031137;28;20133;-73
2023/05/17 04:37:09;;;;;;;8.30;2.55;;;;;;;;;;5030708;28;20465;-73
2023/05/17 04:39:35;;;;;;;5.53;2.22;;;;;;;;;;5037711;28;20124;-74
2023/05/17 04:42:02;;;;;;;6.63;2.20;;;;;;;;;;5035470;28;20523;-74
2023/05/17 04:44:28;;;;;;;4.38;2.20;;;;;;;;;;5037283;28;20136;-72
2023/05/17 04:46:54;;;;;;;7.28;2.70;;;;;;;;;;5047093;28;20507;-72
2023/05/17 04:49:20;;;;;;;7.15;2.53;;;;;;;;;;5035270;28;20045;-73
2023/05/17 04:51:46;;;;;;;7.50;2.35;;;;;;;;;;5036866;28;20037;-73
2023/05/17 04:54:12;;;;;;;7.03;2.42;;;;;;;;;;5037885;28;20049;-72
2023/05/17 04:56:38;;;;;;;7.28;2.17;;;;;;;;;;5037530;28;20500;-72
2023/05/17 04:59:04;;;;;;;6.32;2.20;;;;;;;;;;5032344;28;20129;-72
2023/05/17 05:01:30;;;;;;;11.73;2.70;;;;;;;;;;5032070;28;20076;-72
2023/05/17 05:03:56;;;;;;;10.38;2.55;;;;;;;;;;5028880;28;20092;-72
2023/05/17 05:06:23;;;;;;;9.55;2.65;;;;;;;;;;5043589;28;20056;-72
2023/05/17 05:08:49;;;;;;;5.72;2.20;;;;;;;;;;5051279;28;20037;-72
2023/05/17 05:11:15;;;;;;;6.55;2.10;;;;;;;;;;5035278;28;20045;-72
2023/05/17 05:13:41;;;;;;;4.57;2.00;;;;;;;;;;5039744;28;20098;-72
2023/05/17 05:16:07;;;;;;;6.00;2.45;;;;;;;;;;5034871;28;20049;-72
2023/05/17 05:18:34;;;;;;;6.20;2.22;;;;;;;;;;5037087;28;20091;-72
2023/05/17 05:21:00;;;;;;;6.10;2.30;;;;;;;;;;5035078;28;20136;-72
2023/05/17 05:23:26;;;;;;;8.13;2.35;;;;;;;;;;5049305;28;20242;-71
2023/05/17 05:25:52;;;;;;;7.35;2.90;;;;;;;;;;5053050;28;20445;-72
2023/05/17 05:28:18;;;;;;;6.90;2.20;;;;;;;;;;5051811;28;20531;-72
2023/05/17 05:30:44;;;;;;;7.90;2.40;;;;;;;;;;5046838;28;20034;-72
2023/05/17 05:33:10;;;;;;;5.72;2.42;;;;;;;;;;5044107;28;20049;-72
2023/05/17 05:35:36;;;;;;;8.10;2.53;;;;;;;;;;5040209;28;20472;-72
2023/05/17 05:38:03;;;;;;;8.20;2.83;;;;;;;;;;5035935;28;20064;-72
2023/05/17 05:40:29;;;;;;;6.82;2.40;;;;;;;;;;5036703;28;20418;-73
2023/05/17 05:42:55;;;;;;;6.72;2.35;;;;;;;;;;5047975;28;20045;-73
2023/05/17 05:45:21;;;;;;;7.57;2.60;;;;;;;;;;5038521;28;20448;-73
2023/05/17 05:47:47;;;;;;;4.60;2.10;;;;;;;;;;5044934;28;20396;-73
2023/05/17 05:50:13;;;;;;;6.22;2.83;;;;;;;;;;5059325;28;20405;-73
2023/05/17 05:52:39;;;;;;;8.85;2.97;;;;;;;;;;5040982;28;20049;-73
2023/05/17 05:55:05;;;;;;;12.27;2.97;;;;;;;;;;5040440;28;20043;-72
2023/05/17 05:57:31;;;;;;;6.63;2.78;;;;;;;;;;5043291;28;20057;-72
2023/05/17 05:59:57;;;;;;;10.25;3.40;;;;;;;;;;5053024;28;20041;-73
2023/05/17 06:02:23;;;;;;;8.38;2.40;;;;;;;;;;5048245;28;20037;-72
2023/05/17 06:04:50;;;;;;;6.50;2.50;;;;;;;;;;5047780;28;20053;-73
2023/05/17 06:07:16;;;;;;;4.75;2.60;;;;;;;;;;5051484;28;20050;-72
2023/05/17 06:09:42;;;;;;;10.43;3.40;;;;;;;;;;5048324;28;20087;-72
2023/05/17 06:12:08;;;;;;;8.52;2.50;;;;;;;;;;5034475;28;20102;-73
2023/05/17 06:14:36;;;;;;;6.75;2.58;;;;;;;;;;5034929;28;20128;-73
2023/05/17 06:17:02;;;;;;;8.57;2.55;;;;;;;;;;5038187;28;20124;-72
2023/05/17 06:19:28;;;;;;;8.82;3.28;;;;;;;;;;5049711;28;20057;-73
2023/05/17 06:21:54;;;;;;;11.73;3.00;;;;;;;;;;5070269;28;20045;-73
2023/05/17 06:24:20;;;;;;;7.18;2.70;;;;;;;;;;5081013;28;20060;-72
2023/05/17 06:26:47;;;;;;;10.63;3.08;;;;;;;;;;5043719;28;20043;-73
2023/05/17 06:29:13;;;;;;;10.80;2.75;;;;;;;;;;5048892;28;20492;-73
2023/05/17 06:31:39;;;;;;;7.72;2.92;;;;;;;;;;5038578;28;20056;-72
2023/05/17 06:34:05;;;;;;;17.58;2.92;;;;;;;;;;5071085;28;20051;-73
2023/05/17 06:36:31;;;;;;;13.02;3.22;;;;;;;;;;5053789;28;20120;-73
2023/05/17 06:38:57;;;;;;;8.90;3.08;;;;;;;;;;5050092;28;20557;-72
2023/05/17 06:41:23;;;;;;;10.13;3.53;;;;;;;;;;5034108;28;20128;-73
2023/05/17 06:43:49;;;;;;;9.38;3.13;;;;;;;;;;5031590;28;20041;-73
2023/05/17 06:46:15;;;;;;;9.23;3.30;;;;;;;;;;5030471;28;20116;-74
2023/05/17 06:48:41;;;;;;;9.95;2.90;;;;;;;;;;5032780;28;20475;-74
2023/05/17 06:51:07;;;;;;;8.30;3.13;;;;;;;;;;5050943;28;20124;-74
2023/05/17 06:53:34;;;;;;;7.85;2.60;;;;;;;;;;5052835;28;20492;-73
2023/05/17 06:56:00;;;;;;;7.50;3.33;;;;;;;;;;5041464;28;20041;-73
2023/05/17 06:58:26;;;;;;;11.18;3.35;;;;;;;;;;5047420;28;20048;-72
2023/05/17 07:00:52;;;;;;;12.20;2.80;;;;;;;;;;5036275;28;20056;-73
2023/05/17 07:03:18;;;;;;;9.82;2.88;;;;;;;;;;5030303;28;20157;-73
2023/05/17 07:05:44;;;;;;;9.38;3.35;;;;;;;;;;5045615;28;20136;-72
2023/05/17 07:08:10;;;;;;;10.48;3.75;;;;;;;;;;5045716;28;20456;-72
2023/05/17 07:10:36;;;;;;;9.68;2.85;;;;;;;;;;5031158;28;20050;-73
2023/05/17 07:13:02;;;;;;;11.68;3.10;;;;;;;;;;5045299;28;20040;-74
2023/05/17 07:15:28;;;;;;;7.90;3.10;;;;;;;;;;5037093;28;20524;-73
2023/05/17 07:17:54;;;;;;;13.32;3.30;;;;;;;;;;5031573;28;20088;-72
2023/05/17 07:20:20;;;;;;;10.32;2.97;;;;;;;;;;5040919;28;20041;-73
2023/05/17 07:22:47;;;;;;;9.02;2.78;;;;;;;;;;5034787;28;20053;-73
2023/05/17 07:25:14;;;;;;;8.50;3.10;;;;;;;;;;5066170;28;20054;-73
2023/05/17 07:27:40;;;;;;;9.45;2.75;;;;;;;;;;5033891;28;20115;-73
2023/05/17 07:30:06;;;;;;;9.35;3.25;;;;;;;;;;5042501;28;20814;-72
2023/05/17 07:32:32;;;;;;;11.95;3.58;;;;;;;;;;5046488;28;20049;-74
2023/05/17 07:35:00;;;;;;;10.98;3.30;;;;;;;;;;5044374;28;20049;-74
2023/05/17 07:37:26;;;;;;;8.05;2.92;;;;;;;;;;5033649;28;20431;-73
2023/05/17 07:39:52;;;;;;;11.20;2.72;;;;;;;;;;5049216;28;20044;-73
2023/05/17 07:42:18;;;;;;;14.63;4.30;;;;;;;;;;5049842;28;20153;-73
2023/05/17 07:44:47;;;;;;;8.80;2.97;;;;;;;;;;5033879;28;20408;-73
2023/05/17 07:47:13;;;;;;;11.27;3.10;;;;;;;;;;5044650;28;20041;-74
2023/05/17 07:49:39;;;;;;;10.90;3.40;;;;;;;;;;5052063;28;20045;-73
2023/05/17 07:52:05;;;;;;;12.48;3.63;;;;;;;;;;5043701;28;20045;-73
2023/05/17 07:54:31;;;;;;;8.73;3.10;;;;;;;;;;5035861;28;20124;-73
2023/05/17 07:56:58;;;;;;;5.90;2.42;;;;;;;;;;5042651;28;20080;-74
2023/05/17 07:59:24;;;;;;;9.65;3.25;;;;;;;;;;5029415;28;20467;-73
2023/05/17 08:01:51;;;;;;;10.65;2.92;;;;;;;;;;5031185;28;20496;-74
2023/05/17 08:04:20;;;;;;;10.93;3.35;;;;;;;;;;5043086;28;20060;-73
2023/05/17 08:06:47;;;;;;;10.48;2.88;;;;;;;;;;5029743;28;20045;-74
2023/05/17 08:09:15;;;;;;;10.13;3.28;;;;;;;;;;5033735;28;21040;-74
2023/05/17 08:11:44;;;;;;;8.10;3.15;;;;;;;;;;5040637;28;20081;-74
2023/05/17 08:14:21;;;;;;;9.95;3.38;;;;;;;;;;5061793;28;20102;-73
2023/05/17 08:16:47;;;;;;;7.55;3.33;;;;;;;;;;5045224;28;20037;-74
2023/05/17 08:19:15;;;;;;;12.85;3.03;;;;;;;;;;5043773;28;20485;-73
2023/05/17 08:21:41;;;;;;;10.80;3.08;;;;;;;;;;5034506;28;20068;-73
2023/05/17 08:24:07;;;;;;;12.75;3.13;;;;;;;;;;5037164;28;20562;-73
2023/05/17 08:26:34;;;;;;;8.95;2.85;;;;;;;;;;5034848;28;20045;-73
2023/05/17 08:29:01;;;;;;;8.63;3.38;;;;;;;;;;5065264;28;20037;-73
2023/05/17 08:31:27;;;;;;;9.73;2.90;;;;;;;;;;5032464;28;20038;-72
2023/05/17 08:33:53;;;;;;;9.45;3.25;;;;;;;;;;5034869;28;20073;-73
2023/05/17 08:36:20;;;;;;;8.48;3.13;;;;;;;;;;5035384;28;20049;-73
2023/05/17 08:38:46;;;;;;;8.38;3.25;;;;;;;;;;5035395;28;20061;-73
2023/05/17 08:41:12;;;;;;;9.35;2.90;;;;;;;;;;5030435;28;20366;-74
2023/05/17 08:43:38;;;;;;;10.45;2.92;;;;;;;;;;5032428;28;20059;-74
2023/05/17 08:46:05;;;;;;;5.80;3.00;;;;;;;;;;5068049;28;20045;-73
2023/05/17 08:48:31;;;;;;;7.88;3.05;;;;;;;;;;5040587;28;20045;-73
2023/05/17 08:50:58;;;;;;;11.18;3.10;;;;;;;;;;5034401;28;20052;-73
2023/05/17 08:53:25;;;;;;;10.40;3.55;;;;;;;;;;5035601;28;20041;-73
2023/05/17 08:55:53;;;;;;;12.23;3.20;;;;;;;;;;5072685;28;20087;-74
2023/05/17 08:58:20;;;;;;;7.00;2.42;;;;;;;;;;5039318;28;20458;-73
2023/05/17 09:00:47;;;;;;;9.05;3.10;;;;;;;;;;5034090;28;20057;-73
2023/05/17 09:03:15;;;;;;;10.88;2.70;;;;;;;;;;5037573;28;20049;-74
2023/05/17 09:05:42;;;;;;;8.30;2.85;;;;;;;;;;5034824;28;20048;-73
2023/05/17 09:08:12;;;;;;;6.30;2.78;;;;;;;;;;5046215;28;20044;-74
2023/05/17 09:10:38;;;;;;;6.60;2.88;;;;;;;;;;5044625;28;20095;-74
2023/05/17 09:13:04;;;;;;;9.55;3.33;;;;;;;;;;5039359;28;20056;-74
2023/05/17 09:15:33;;;;;;;6.95;2.90;;;;;;;;;;5045819;28;20045;-73
2023/05/17 09:17:59;;;;;;;8.95;3.25;;;;;;;;;;5036910;28;20397;-74
2023/05/17 09:20:33;;;;;;;8.00;2.78;;;;;;;;;;5037151;28;20042;-73
2023/05/17 09:23:00;;;;;;;9.20;2.78;;;;;;;;;;5036299;28;21674;-73
2023/05/17 09:25:28;;;;;;;12.23;2.85;;;;;;;;;;5044008;28;20491;-74
2023/05/17 09:27:58;;;;;;;10.27;2.75;;;;;;;;;;5040712;28;20041;-73
2023/05/17 09:30:27;;;;;;;10.65;3.10;;;;;;;;;;5039182;28;20175;-73
2023/05/17 09:32:54;;;;;;;6.70;2.90;;;;;;;;;;5052044;28;20057;-73
2023/05/17 09:35:28;;;;;;;7.38;2.85;;;;;;;;;;5051578;28;20045;-74
2023/05/17 09:37:54;;;;;;;11.43;3.00;;;;;;;;;;5042450;28;20132;-73
2023/05/17 09:40:26;;;;;;;9.88;2.65;;;;;;;;;;5039005;28;20049;-73
2023/05/17 09:42:52;;;;;;;11.48;2.88;;;;;;;;;;5052108;28;20045;-74
2023/05/17 09:45:22;;;;;;;11.18;2.72;;;;;;;;;;5039077;28;20056;-74
2023/05/17 09:47:48;;;;;;;9.63;2.88;;;;;;;;;;5048385;28;20063;-74
2023/05/17 09:50:18;;;;;;;12.02;2.80;;;;;;;;;;5035447;28;20045;-73
2023/05/17 09:52:45;;;;;;;11.10;2.97;;;;;;;;;;5039666;28;20050;-73
2023/05/17 09:55:11;;;;;;;7.38;2.97;;;;;;;;;;5069019;28;20051;-74
2023/05/17 09:57:38;;;;;;;11.90;3.08;;;;;;;;;;5051256;28;20084;-73
2023/05/17 10:00:10;;;;;;;10.27;2.67;;;;;;;;;;5035861;28;20049;-73
2023/05/17 10:02:39;;;;;;;7.07;2.90;;;;;;;;;;5042036;28;20100;-74
2023/05/17 10:05:08;;;;;;;6.10;2.50;;;;;;;;;;5036344;28;20045;-73
2023/05/17 10:07:34;;;;;;;6.70;2.40;;;;;;;;;;5042225;28;20477;-74
2023/05/17 10:10:00;;;;;;;8.25;2.50;;;;;;;;;;5042438;28;20103;-73
2023/05/17 10:12:33;;;;;;;7.35;2.47;;;;;;;;;;5041888;28;20037;-73
2023/05/17 10:15:00;;;;;;;7.22;2.70;;;;;;;;;;5034353;28;20045;-73
2023/05/17 10:17:28;;;;;;;8.73;2.90;;;;;;;;;;5032492;28;20049;-74
2023/05/17 10:19:55;;;;;;;9.07;2.53;;;;;;;;;;5043903;28;20448;-74
2023/05/17 10:22:22;;;;;;;6.93;2.55;;;;;;;;;;5052218;28;20057;-74
2023/05/17 10:24:48;;;;;;;7.30;2.78;;;;;;;;;;5042066;28;20061;-74
2023/05/17 10:27:15;;;;;;;7.68;3.35;;;;;;;;;;5035798;28;20128;-74
2023/05/17 10:29:42;;;;;;;8.63;2.47;;;;;;;;;;5036844;28;20152;-74
2023/05/17 10:32:09;;;;;;;5.57;2.42;;;;;;;;;;5038865;28;20389;-75
2023/05/17 10:34:36;;;;;;;9.63;2.70;;;;;;;;;;5046660;28;20443;-74
2023/05/17 10:37:02;;;;;;;10.27;2.70;;;;;;;;;;5065092;28;20505;-74
2023/05/17 10:39:28;;;;;;;6.43;2.80;;;;;;;;;;5038318;28;20045;-74
2023/05/17 10:41:56;;;;;;;9.13;2.80;;;;;;;;;;5048887;28;20053;-74
2023/05/17 10:44:22;;;;;;;8.07;2.42;;;;;;;;;;5044716;28;20053;-74
2023/05/17 10:46:53;;;;;;;7.25;2.97;;;;;;;;;;5032354;28;20088;-74
2023/05/17 10:49:19;;;;;;;8.77;2.65;;;;;;;;;;5031717;28;20429;-74
2023/05/17 10:51:45;;;;;;;9.95;2.70;;;;;;;;;;5033111;28;20080;-74
2023/05/17 10:54:17;;;;;;;6.85;2.72;;;;;;;;;;5043797;28;20142;-74
2023/05/17 10:56:51;;;;;;;7.68;2.80;;;;;;;;;;5045486;28;20064;-77
2023/05/17 10:59:25;;;;;;;8.30;2.45;;;;;;;;;;5041418;28;20053;-75
2023/05/17 11:02:04;;;;;;;10.82;3.30;;;;;;;;;;5035103;28;20068;-76
2023/05/17 11:04:36;;;;;;;8.95;3.47;;;;;;;;;;5050200;28;20508;-74
2023/05/17 11:07:25;;;;;;;9.80;2.78;;;;;;;;;;5049671;28;20052;-74
2023/05/17 11:10:07;;;;;;;6.97;3.47;;;;;;;;;;5065452;28;20058;-76
2023/05/17 11:12:40;;;;;;;5.40;2.50;;;;;;;;;;5032746;28;20052;-75
2023/05/17 11:15:07;;;;;;;;;;;;;;;;;;5030998;28;20145;-74
2023/05/17 11:17:36;;;;;;;9.05;3.05;;;;;;;;;;5035569;28;20020;-75
2023/05/17 11:20:08;;;;;;;12.85;3.20;;;;;;;;;;5043578;28;20045;-74
2023/05/17 11:22:36;;;;;;;12.10;3.37;;;;;;;;;;5051866;28;20049;-74
2023/05/17 11:25:06;;;;;;;15.43;3.30;;;;;;;;;;5033541;28;20524;-74
2023/05/17 11:27:58;;;;;;;10.48;3.17;;;;;;;;;;5042796;28;20041;-73
2023/05/17 11:30:26;;;;;;;6.47;2.85;;;;;;;;;;5042248;28;20053;-74
2023/05/17 11:32:53;;;;;;;11.02;3.22;;;;;;;;;;5033627;28;20057;-74
2023/05/17 11:35:23;;;;;;;10.20;3.38;;;;;;;;;;5033025;28;20149;-75
2023/05/17 11:37:51;;;;;;;7.43;2.58;;;;;;;;;;5032003;28;20068;-74
2023/05/17 11:40:24;;;;;;;11.15;3.42;;;;;;;;;;5034999;28;20041;-74
2023/05/17 11:42:50;;;;;;;8.88;2.88;;;;;;;;;;5035186;28;20189;-74
2023/05/17 11:45:17;;;;;;;10.73;3.25;;;;;;;;;;5034801;28;20543;-75
2023/05/17 11:47:47;;;;;;;7.50;2.95;;;;;;;;;;5039631;28;20123;-75
2023/05/17 11:50:15;;;;;;;11.50;3.05;;;;;;;;;;5033718;28;20041;-75
2023/05/17 11:52:41;;;;;;;6.88;3.00;;;;;;;;;;5030593;28;20060;-76
2023/05/17 11:55:07;;;;;;;9.52;3.35;;;;;;;;;;5032404;28;20587;-74
2023/05/17 11:57:33;;;;;;;8.77;2.90;;;;;;;;;;5049831;28;20085;-74
2023/05/17 12:00:00;;;;;;;7.88;2.65;;;;;;;;;;5048531;28;20060;-75
2023/05/17 12:02:27;;;;;;;12.23;3.10;;;;;;;;;;5038981;28;20149;-74
2023/05/17 12:04:53;;;;;;;9.73;2.50;;;;;;;;;;5030403;28;20038;-73
2023/05/17 12:07:19;;;;;;;9.70;2.58;;;;;;;;;;5038522;28;20045;-74
2023/05/17 12:09:45;;;;;;;7.32;2.47;;;;;;;;;;5077362;28;20040;-75
2023/05/17 12:12:12;;;;;;;7.47;2.45;;;;;;;;;;5040751;28;20045;-74
2023/05/17 12:14:38;;;;;;;7.75;3.20;;;;;;;;;;5031383;28;20489;-74
2023/05/17 12:17:07;;;;;;;8.80;2.85;;;;;;;;;;5030363;28;20128;-74
2023/05/17 12:19:34;;;;;;;5.45;2.40;;;;;;;;;;5035928;28;20053;-74
2023/05/17 12:22:13;;;;;;;12.60;3.28;;;;;;;;;;5037763;28;20397;-74
2023/05/17 12:24:40;;;;;;;6.32;2.45;;;;;;;;;;5041619;28;20049;-74
2023/05/17 12:27:06;;;;;;;6.18;2.40;;;;;;;;;;5041077;28;20120;-74
2023/05/17 12:29:32;;;;;;;9.68;2.97;;;;;;;;;;5030314;28;20045;-74
2023/05/17 12:32:00;;;;;;;9.25;3.35;;;;;;;;;;5030905;28;20053;-74
2023/05/17 12:34:26;;;;;;;10.15;3.03;;;;;;;;;;5045588;28;20387;-74
2023/05/17 12:36:52;;;;;;;9.57;2.83;;;;;;;;;;5042106;28;20052;-74
2023/05/17 12:39:22;;;;;;;10.02;3.03;;;;;;;;;;5036913;28;20149;-74
2023/05/17 12:41:50;;;;;;;8.05;2.60;;;;;;;;;;5038012;28;20089;-75
2023/05/17 12:44:16;;;;;;;5.88;2.60;;;;;;;;;;5030738;28;20532;-74
2023/05/17 12:46:43;;;;;;;9.52;3.10;;;;;;;;;;5030019;28;20140;-74
2023/05/17 12:49:10;;;;;;;7.53;2.40;;;;;;;;;;5030745;28;20057;-74
2023/05/17 12:51:41;;;;;;;9.55;2.60;;;;;;;;;;5034924;28;20049;-74
2023/05/17 12:54:07;;;;;;;6.20;2.58;;;;;;;;;;5030576;28;20065;-74
2023/05/17 12:56:33;;;;;;;7.85;2.85;;;;;;;;;;5041735;28;20049;-74
2023/05/17 12:59:12;;;;;;;5.30;2.47;;;;;;;;;;5031110;28;20057;-74
2023/05/17 13:01:40;;;;;;;10.10;2.95;;;;;;;;;;5039213;28;20056;-74
2023/05/17 13:04:06;;;;;;;7.22;2.30;;;;;;;;;;5031231;28;20053;-73
2023/05/17 13:06:47;;;;;;;6.40;2.30;;;;;;;;;;5030143;28;20090;-74
2023/05/17 13:09:14;;;;;;;7.72;2.55;;;;;;;;;;5029353;28;20107;-74
2023/05/17 13:11:41;;;;;;;7.13;2.50;;;;;;;;;;5049428;28;20087;-73
2023/05/17 13:14:13;;;;;;;8.25;2.58;;;;;;;;;;5038297;28;20153;-73
2023/05/17 13:16:40;;;;;;;4.38;2.00;;;;;;;;;;5037529;28;20037;-74
2023/05/17 13:19:15;;;;;;;7.07;2.10;;;;;;;;;;5042722;28;20048;-73
2023/05/17 13:21:41;;;;;;;12.18;2.60;;;;;;;;;;5020502;28;20055;-73
2023/05/17 13:24:09;;;;;;;5.22;2.50;;;;;;;;;;5053572;28;20136;-74
2023/05/17 13:26:35;;;;;;;3.75;2.08;;;;;;;;;;5040101;28;20401;-74
2023/05/17 13:29:02;;;;;;;7.72;2.78;;;;;;;;;;5050238;28;20561;-74
2023/05/17 13:31:28;;;;;;;5.18;2.38;;;;;;;;;;5049345;28;20668;-73
2023/05/17 13:33:54;;;;;;;6.03;2.40;;;;;;;;;;5035438;28;20049;-73
2023/05/17 13:36:20;;;;;;;5.90;2.00;;;;;;;;;;5043848;28;20033;-73
2023/05/17 13:38:46;;;;;;;5.15;2.15;;;;;;;;;;5049527;28;20056;-71
2023/05/17 13:41:12;;;;;;;6.82;2.30;;;;;;;;;;5042233;28;20059;-74
2023/05/17 13:43:38;;;;;;;6.40;2.42;;;;;;;;;;5075119;28;20041;-74
2023/05/17 13:46:04;;;;;;;4.57;2.05;;;;;;;;;;5054403;28;20041;-74
2023/05/17 13:48:30;;;;;;;4.53;1.90;;;;;;;;;;5051722;28;20044;-74
2023/05/17 13:50:57;;;;;;;4.93;2.08;;;;;;;;;;5043603;28;20048;-73
2023/05/17 13:53:23;;;;;;;5.78;2.00;;;;;;;;;;5039463;28;20046;-74
2023/05/17 13:55:49;;;;;;;4.05;2.28;;;;;;;;;;5035386;28;20051;-73
2023/05/17 13:58:16;;;;;;;4.30;2.10;;;;;;;;;;5037903;28;20493;-74
2023/05/17 14:00:43;;;;;;;5.30;2.67;;;;;;;;;;5037918;28;20058;-73
2023/05/17 14:03:12;;;;;;;6.10;2.40;;;;;;;;;;5039322;28;20053;-74
2023/05/17 14:05:38;;;;;;;5.30;2.53;;;;;;;;;;5033204;28;20096;-74
2023/05/17 14:08:05;;;;;;;4.03;1.70;;;;;;;;;;5037093;28;20124;-74
2023/05/17 14:10:31;;;;;;;5.07;2.20;;;;;;;;;;5035723;28;20046;-73
2023/05/17 14:12:57;;;;;;;7.03;2.33;;;;;;;;;;5033668;28;20056;-74
2023/05/17 14:15:24;;;;;;;4.90;2.20;;;;;;;;;;5049095;28;20045;-74
2023/05/17 14:17:50;;;;;;;4.47;2.17;;;;;;;;;;5062760;28;20057;-74
2023/05/17 14:20:16;;;;;;;5.53;2.45;;;;;;;;;;5033696;28;20033;-74
2023/05/17 14:22:42;;;;;;;4.65;2.05;;;;;;;;;;5044270;28;20049;-74
2023/05/17 14:25:10;;;;;;;4.68;2.55;;;;;;;;;;5040026;28;20125;-74
2023/05/17 14:27:36;;;;;;;4.45;2.00;;;;;;;;;;5026202;28;20076;-75
2023/05/17 14:30:02;;;;;;;5.38;2.25;;;;;;;;;;5030631;28;20044;-74
2023/05/17 14:32:28;;;;;;;4.82;2.10;;;;;;;;;;5027875;28;20041;-75
2023/05/17 14:34:55;;;;;;;4.10;1.83;;;;;;;;;;5029372;28;20038;-75
2023/05/17 14:37:21;;;;;;;5.90;2.40;;;;;;;;;;5060777;28;20052;-75
2023/05/17 14:39:47;;;;;;;4.57;2.33;;;;;;;;;;5025740;28;20051;-75